createdAt,value
2023-03-21T09:10:19.169Z,93.00
2023-03-21T09:15:14.738Z,92.80
2023-03-21T09:20:11.492Z,91.50
2023-03-21T09:25:11.670Z,90.70
2023-03-21T09:30:06.196Z,87.40
2023-03-21T09:34:59.868Z,84.20
2023-03-21T09:39:53.748Z,83.00
2023-03-21T09:50:17.294Z,77.50
2023-03-21T09:55:20.230Z,72.50
2023-03-21T10:00:20.854Z,74.80
2023-03-21T10:05:21.183Z,74.10
2023-03-21T10:10:20.167Z,72.70
2023-03-21T10:15:19.575Z,72.80
2023-03-21T10:20:21.506Z,74.00
2023-03-21T10:25:18.756Z,74.20
2023-03-21T10:30:22.646Z,73.90
2023-03-21T10:35:17.929Z,75.30
2023-03-21T10:40:17.949Z,74.90
2023-03-21T10:45:17.720Z,74.80
2023-03-21T10:50:17.087Z,74.50
2023-03-21T10:55:21.670Z,74.30
2023-03-21T11:00:21.553Z,74.20
2023-03-21T11:05:22.797Z,72.50
2023-03-21T11:10:30.342Z,71.60
2023-03-21T11:15:30.427Z,69.50
2023-03-21T11:20:24.690Z,69.10
2023-03-21T11:25:27.116Z,69.80
2023-03-21T11:30:24.377Z,70.40
2023-03-21T11:35:22.123Z,71.60
2023-03-21T11:40:33.170Z,69.40
2023-03-21T11:45:29.183Z,69.10
2023-03-21T11:50:32.758Z,69.70
2023-03-21T11:55:46.495Z,69.10
2023-03-21T12:00:49.979Z,67.80
2023-03-21T12:05:48.767Z,68.20
2023-03-21T12:10:49.234Z,69.50
2023-03-21T12:15:53.134Z,68.70
2023-03-21T12:20:52.237Z,69.90
2023-03-21T12:25:55.985Z,68.70
2023-03-21T12:30:57.273Z,68.50
2023-03-21T12:36:02.995Z,64.40
2023-03-21T12:41:20.977Z,64.00
2023-03-21T12:46:20.874Z,63.80
2023-03-21T12:51:17.476Z,64.60
2023-03-21T12:56:19.998Z,65.50
2023-03-21T13:01:17.125Z,65.80
2023-03-21T13:06:15.008Z,66.40
2023-03-21T13:11:09.573Z,66.90
2023-03-21T13:16:11.712Z,66.70
2023-03-21T13:21:12.155Z,66.40
2023-03-21T13:26:11.376Z,66.70
2023-03-21T13:31:21.267Z,65.50
2023-03-21T13:36:17.023Z,65.10
2023-03-21T13:41:14.805Z,65.00
2023-03-21T13:46:10.449Z,63.90
2023-03-21T13:51:06.805Z,63.30
2023-03-21T13:56:08.148Z,63.50
2023-03-21T14:01:23.756Z,63.50
2023-03-21T14:06:20.105Z,63.10
2023-03-21T14:11:17.364Z,60.60
2023-03-21T14:16:14.564Z,58.30
2023-03-21T14:21:23.318Z,56.30
2023-03-21T14:26:19.704Z,54.80
2023-03-21T14:31:17.495Z,55.80
2023-03-21T14:36:15.878Z,56.20
2023-03-21T14:41:25.224Z,55.90
2023-03-21T14:46:23.133Z,55.30
2023-03-21T14:51:16.923Z,52.10
2023-03-21T14:56:20.361Z,46.50
2023-03-21T15:01:18.623Z,41.90
2023-03-21T15:06:14.868Z,38.80
2023-03-21T15:11:10.523Z,37.40
2023-03-21T15:16:06.147Z,36.30
2023-03-21T15:21:05.176Z,35.00
2023-03-21T15:25:59.192Z,34.10
2023-03-21T15:30:54.305Z,34.00
2023-03-21T15:35:54.232Z,39.30
2023-03-21T15:40:49.543Z,42.00
2023-03-21T15:45:49.306Z,45.10
2023-03-21T15:50:49.342Z,46.80
2023-03-21T15:55:48.405Z,47.40
2023-03-21T16:00:45.610Z,49.00
2023-03-21T16:05:39.252Z,50.20
2023-03-21T16:10:38.146Z,52.10
2023-03-21T16:15:32.298Z,53.30
2023-03-21T16:20:33.069Z,54.30
2023-03-21T16:25:27.148Z,54.80
2023-03-21T16:30:23.273Z,55.10
2023-03-21T16:35:17.045Z,56.00
2023-03-21T16:40:28.865Z,57.10
2023-03-21T16:45:23.373Z,58.60
2023-03-21T16:50:25.386Z,59.70
2023-03-21T16:55:19.145Z,61.00
2023-03-21T17:00:20.587Z,62.80
2023-03-21T17:05:14.137Z,64.10
2023-03-21T17:10:17.575Z,65.80
2023-03-21T17:15:12.169Z,67.90
2023-03-21T17:20:19.162Z,69.60
2023-03-21T17:25:13.256Z,71.20
2023-03-21T17:30:18.022Z,71.70
2023-03-21T17:35:13.106Z,72.60
2023-03-21T17:40:10.001Z,73.60
2023-03-21T17:45:03.940Z,75.70
